KAWM/AWM METAR and TAF weather

Enter ICAO airport designator
Station Type Date Time Source
KAWM METAR 2018/06/25 01:53 UTC NOAA

KAWM 250153Z AUTO 19003KT 10SM CLR 28/24 A2992 RMK AO2 SLP127 T02780244 $


Station Type Date Time Source
KAWM Decoded METAR 2018/06/25 01:53 UTC NOAA

WEST MEMPHIS MUNICIPAL AIRPORT, AR, United States (KAWM) 35-08N 090-14W
Jun 24, 2018 - 09:53 PM EDT / 2018.06.25 0153 UTC
Wind: from the S (190 degrees) at 3 MPH (3 KT):0
Visibility: 10 mile(s):0
Sky conditions: clear
Temperature: 82.0 F (27.8 C)
Dew Point: 75.9 F (24.4 C)
Relative Humidity: 81%
Pressure (altimeter): 29.92 in. Hg (1013 hPa)
ob: KAWM 250153Z AUTO 19003KT 10SM CLR 28/24 A2992 RMK AO2 SLP127 T02780244
cycle: 2

Station Type Date Time Source
KAWM TAF UTC NOAA

Error!


Example: see airport list